createdAt,value
2022-12-27T09:27:56.960Z,1.67
2022-12-27T09:30:29.797Z,1.37
2022-12-27T09:33:01.346Z,1.80
2022-12-27T09:35:36.942Z,1.22
2022-12-27T09:38:05.472Z,1.25
2022-12-27T09:40:37.829Z,1.32
2022-12-27T09:43:22.244Z,0.70
2022-12-27T09:45:46.622Z,2.17
2022-12-27T09:48:21.163Z,2.00
2022-12-27T09:50:55.498Z,2.05
2022-12-27T09:53:29.995Z,1.57
2022-12-27T09:56:01.445Z,1.82
2022-12-27T09:58:39.738Z,0.80
2022-12-27T10:01:24.065Z,2.00
2022-12-27T10:03:55.818Z,0.70
2022-12-27T10:06:35.601Z,0.70
2022-12-27T10:09:11.958Z,0.60
2022-12-27T10:11:46.422Z,0.57
2022-12-27T10:14:27.857Z,0.70
2022-12-27T10:17:03.208Z,0.70
2022-12-27T10:19:41.531Z,0.70
2022-12-27T10:22:19.049Z,1.10
2022-12-27T10:24:53.486Z,0.53
2022-12-27T10:27:28.447Z,0.95
2022-12-27T10:30:03.250Z,0.98
2022-12-27T10:32:34.581Z,0.53
2022-12-27T10:35:07.284Z,0.30
2022-12-27T10:37:38.620Z,0.50
2022-12-27T10:40:14.614Z,0.60
2022-12-27T10:42:49.906Z,0.90
2022-12-27T10:45:33.386Z,0.40
2022-12-27T10:51:11.598Z,0.78
2022-12-27T10:53:55.384Z,1.85
2022-12-27T10:56:32.363Z,0.50
2022-12-27T10:59:16.436Z,1.40
2022-12-27T11:01:49.925Z,1.60
2022-12-27T11:04:23.464Z,0.98
2022-12-27T11:06:59.748Z,0.90
2022-12-27T11:09:34.233Z,0.98
2022-12-27T11:12:19.759Z,0.60
2022-12-27T11:15:01.865Z,1.02
2022-12-27T11:17:37.951Z,0.72
2022-12-27T11:20:20.396Z,0.60
2022-12-27T11:22:55.232Z,0.53
2022-12-27T11:25:28.796Z,0.40
2022-12-27T11:28:03.336Z,0.80
2022-12-27T11:30:38.215Z,1.02
2022-12-27T11:33:22.698Z,1.60
2022-12-27T11:35:53.281Z,0.40
2022-12-27T11:38:28.011Z,0.60
2022-12-27T11:41:03.941Z,0.82
2022-12-27T11:43:38.424Z,1.55
2022-12-27T11:46:13.543Z,0.90
2022-12-27T11:48:46.967Z,0.70
2022-12-27T11:55:03.660Z,0.60
2022-12-27T11:57:44.004Z,1.05
2022-12-27T12:00:19.889Z,0.78
2022-12-27T12:03:11.256Z,0.90
2022-12-27T12:05:57.476Z,0.80
2022-12-27T12:09:03.926Z,0.78
2022-12-27T12:11:43.642Z,0.98
2022-12-27T12:14:44.138Z,0.82
2022-12-27T12:17:27.670Z,1.27
2022-12-27T12:20:20.777Z,1.42
2022-12-27T12:23:03.238Z,1.27
2022-12-27T12:29:26.126Z,0.78
2022-12-27T12:32:27.650Z,1.17
2022-12-27T12:35:20.428Z,0.90
2022-12-27T12:41:34.260Z,1.02
2022-12-27T12:44:54.594Z,0.60
2022-12-27T12:47:41.774Z,1.05
2022-12-27T12:53:41.677Z,0.90
2022-12-27T12:56:24.380Z,1.07
2022-12-27T12:58:58.998Z,0.90
2022-12-27T13:01:37.815Z,0.80
2022-12-27T13:04:29.569Z,0.82
2022-12-27T13:10:37.529Z,1.30
2022-12-27T13:15:46.796Z,1.05
2022-12-27T13:18:30.157Z,2.15
2022-12-27T13:21:05.293Z,1.02
2022-12-27T13:23:42.531Z,0.90
2022-12-27T13:26:21.017Z,0.85
2022-12-27T13:29:00.555Z,1.05
2022-12-27T13:31:37.529Z,1.70
2022-12-27T13:34:17.859Z,0.70
2022-12-27T13:36:57.468Z,0.80
2022-12-27T13:39:36.508Z,2.27
2022-12-27T13:42:47.845Z,0.95
2022-12-27T13:48:17.503Z,0.40
2022-12-27T13:50:59.855Z,0.50
2022-12-27T13:54:10.340Z,1.27
2022-12-27T13:56:55.766Z,0.80
2022-12-27T13:59:44.577Z,0.60
2022-12-27T14:02:41.069Z,2.35
2022-12-27T14:05:40.936Z,2.02
2022-12-27T14:08:16.851Z,0.60
2022-12-27T14:10:55.236Z,24.55
2022-12-27T14:13:28.051Z,4.20
2022-12-27T14:19:45.248Z,0.70
2022-12-27T14:22:32.873Z,0.70
2022-12-27T14:25:30.899Z,1.47
2022-12-27T14:29:04.126Z,1.00
2022-12-27T14:32:01.521Z,0.70
2022-12-27T14:34:59.550Z,0.80
2022-12-27T14:38:06.355Z,1.40
2022-12-27T14:40:53.445Z,4.87
2022-12-27T14:47:10.114Z,1.20
2022-12-27T14:50:04.924Z,1.12
2022-12-27T14:52:54.226Z,2.67
2022-12-27T14:55:49.716Z,1.80
2022-12-27T14:58:33.305Z,1.60
2022-12-27T15:01:18.390Z,1.50
2022-12-27T15:03:56.708Z,1.30
2022-12-27T15:06:37.594Z,2.12
2022-12-27T15:09:13.548Z,1.52
2022-12-27T15:11:58.958Z,1.70
2022-12-27T15:14:40.816Z,4.35
2022-12-27T15:17:17.326Z,3.22
2022-12-27T15:20:14.339Z,3.65
2022-12-27T15:22:53.177Z,2.70
2022-12-27T15:25:29.017Z,2.17
2022-12-27T15:28:05.664Z,3.35
2022-12-27T15:30:41.441Z,2.80
2022-12-27T15:33:17.021Z,2.33
2022-12-27T15:35:56.868Z,1.42
2022-12-27T15:38:54.278Z,1.30
2022-12-27T15:41:38.257Z,1.30
2022-12-27T15:44:49.949Z,2.25
2022-12-27T15:47:49.313Z,1.62
2022-12-27T15:50:33.197Z,2.47
2022-12-27T15:56:27.093Z,1.50
2022-12-27T15:59:33.380Z,1.72
2022-12-27T16:02:29.517Z,4.58
2022-12-27T16:05:08.677Z,2.50
2022-12-27T16:07:47.715Z,2.62
2022-12-27T16:10:50.977Z,2.45
2022-12-27T16:17:06.549Z,3.05
2022-12-27T16:22:42.749Z,3.22
2022-12-27T16:25:31.632Z,2.33
2022-12-27T16:28:08.223Z,2.67
2022-12-27T16:30:47.207Z,3.15
2022-12-27T16:33:37.319Z,3.10
2022-12-27T16:39:50.391Z,2.52
2022-12-27T16:42:25.562Z,3.25
2022-12-27T16:45:03.586Z,3.12
2022-12-27T16:48:02.609Z,2.83
2022-12-27T16:50:42.633Z,3.47
2022-12-27T16:53:28.140Z,2.65
2022-12-27T16:56:22.563Z,4.67
2022-12-27T16:58:54.105Z,4.28
2022-12-27T17:02:03.044Z,3.80
2022-12-27T17:04:53.952Z,3.83
2022-12-27T17:07:57.550Z,3.65
2022-12-27T17:10:57.874Z,4.25
2022-12-27T17:13:46.389Z,3.58
2022-12-27T17:16:22.218Z,3.50
2022-12-27T17:18:58.183Z,3.52
2022-12-27T17:21:31.635Z,4.55
2022-12-27T17:24:07.961Z,7.03
2022-12-27T17:30:20.895Z,4.35
2022-12-27T17:33:11.349Z,4.50
2022-12-27T17:35:52.291Z,6.83
2022-12-27T17:38:46.015Z,6.10
2022-12-27T17:41:23.993Z,5.75
2022-12-27T17:44:16.072Z,6.90
2022-12-27T17:46:50.596Z,5.25
2022-12-27T17:49:28.246Z,6.30
2022-12-27T17:52:17.592Z,6.60
2022-12-27T17:55:06.598Z,5.08
2022-12-27T17:57:56.244Z,3.60
2022-12-27T18:00:31.340Z,5.03
2022-12-27T18:03:06.557Z,6.17
2022-12-27T18:05:43.147Z,4.25
2022-12-27T18:08:25.227Z,6.40
2022-12-27T18:10:57.388Z,5.53
2022-12-27T18:13:31.357Z,5.03
2022-12-27T18:16:05.743Z,4.87
2022-12-27T18:18:37.366Z,5.12
2022-12-27T18:21:12.165Z,9.13
2022-12-27T18:23:45.737Z,5.70
2022-12-27T18:26:17.804Z,6.40
2022-12-27T18:28:49.443Z,5.20
2022-12-27T18:31:24.860Z,5.72
2022-12-27T18:33:59.691Z,4.85
2022-12-27T18:36:34.298Z,9.53
2022-12-27T18:39:09.129Z,5.90
2022-12-27T18:41:43.829Z,6.12
2022-12-27T18:44:24.720Z,7.33
2022-12-27T18:46:54.071Z,6.05
2022-12-27T18:49:30.382Z,6.22
2022-12-27T18:52:03.172Z,5.03
2022-12-27T18:54:36.951Z,5.58
2022-12-27T18:57:14.148Z,5.90
2022-12-27T18:59:45.618Z,5.75
2022-12-27T19:02:35.886Z,4.60
2022-12-27T19:05:30.057Z,4.05
2022-12-27T19:08:07.043Z,4.17
2022-12-27T19:10:40.930Z,4.25
2022-12-27T19:13:21.192Z,4.75
2022-12-27T19:15:53.876Z,4.30
2022-12-27T19:18:28.039Z,5.28
2022-12-27T19:21:02.317Z,6.35
2022-12-27T19:23:36.140Z,6.20
2022-12-27T19:26:21.387Z,6.95
2022-12-27T19:29:01.983Z,6.97
2022-12-27T19:31:34.683Z,4.03
2022-12-27T19:34:09.336Z,6.37
2022-12-27T19:36:43.389Z,5.95
2022-12-27T19:39:21.536Z,10.23
2022-12-27T19:41:53.612Z,7.40
2022-12-27T19:44:26.864Z,8.18
2022-12-27T19:46:58.493Z,5.47
2022-12-27T19:49:45.445Z,5.40
2022-12-27T19:52:03.141Z,7.37
2022-12-27T19:54:35.181Z,7.58
2022-12-27T19:57:06.587Z,5.50
2022-12-27T19:59:37.911Z,6.87
2022-12-27T20:02:09.987Z,5.60
2022-12-27T20:04:41.626Z,5.30
2022-12-27T20:07:16.786Z,5.37
2022-12-27T20:09:48.169Z,6.80
2022-12-27T20:12:22.081Z,4.83
2022-12-27T20:14:54.162Z,4.62
2022-12-27T20:17:25.852Z,7.53
2022-12-27T20:19:57.232Z,6.65
2022-12-27T20:22:28.989Z,7.53
2022-12-27T20:25:00.461Z,10.45
2022-12-27T20:27:31.989Z,8.40
2022-12-27T20:30:04.697Z,9.38
2022-12-27T20:32:36.588Z,10.60
2022-12-27T20:35:10.089Z,9.73
2022-12-27T20:37:41.654Z,9.70
2022-12-27T20:40:13.947Z,9.93
2022-12-27T20:42:45.468Z,8.25
2022-12-27T20:45:18.401Z,7.53
2022-12-27T20:47:50.015Z,7.42
2022-12-27T20:50:21.533Z,8.50
2022-12-27T20:52:53.379Z,7.80
2022-12-27T20:55:24.774Z,8.85
2022-12-27T20:57:56.212Z,8.80
2022-12-27T21:00:27.597Z,6.12
2022-12-27T21:03:00.114Z,7.75
2022-12-27T21:05:31.830Z,6.75
2022-12-27T21:08:03.263Z,5.80
2022-12-27T21:10:35.561Z,6.50
2022-12-27T21:13:07.751Z,5.62
2022-12-27T21:15:42.507Z,5.85
2022-12-27T21:18:12.196Z,5.95
2022-12-27T21:20:43.569Z,4.10
2022-12-27T21:23:15.046Z,3.47
2022-12-27T21:25:46.492Z,3.65
2022-12-27T21:28:18.989Z,3.27
2022-12-27T21:30:58.158Z,3.00
2022-12-27T21:33:30.890Z,3.05
2022-12-27T21:36:04.670Z,3.40
2022-12-27T21:38:38.346Z,2.80
2022-12-27T21:41:12.620Z,3.90
2022-12-27T21:43:45.017Z,2.92
2022-12-27T21:46:19.522Z,3.83
2022-12-27T21:48:52.661Z,2.42
2022-12-27T21:51:24.293Z,2.30
2022-12-27T21:53:56.346Z,8.70
2022-12-27T21:56:28.485Z,2.00
2022-12-27T21:59:02.939Z,2.70
2022-12-27T22:01:50.087Z,2.50
2022-12-27T22:04:09.133Z,2.72
2022-12-27T22:06:46.562Z,2.10
2022-12-27T22:09:14.041Z,2.55
2022-12-27T22:11:45.524Z,1.98
2022-12-27T22:14:18.067Z,2.30
2022-12-27T22:16:50.055Z,3.10
2022-12-27T22:19:21.407Z,2.62
2022-12-27T22:21:52.827Z,2.92
2022-12-27T22:24:24.137Z,2.35
2022-12-27T22:26:55.606Z,2.85
2022-12-27T22:29:34.837Z,2.40
2022-12-27T22:32:01.567Z,2.90
2022-12-27T22:34:33.078Z,2.65
2022-12-27T22:37:04.898Z,2.75
2022-12-27T22:39:36.294Z,2.85
2022-12-27T22:42:07.813Z,2.70
2022-12-27T22:44:39.236Z,2.90
2022-12-27T22:47:27.620Z,2.95
2022-12-27T22:49:43.902Z,3.65
2022-12-27T22:52:15.309Z,2.55
2022-12-27T22:55:02.927Z,2.27
2022-12-27T22:57:20.771Z,2.15
2022-12-27T22:59:52.136Z,2.60
2022-12-27T23:02:23.703Z,2.85
2022-12-27T23:04:55.638Z,3.27
2022-12-27T23:08:05.982Z,3.27
2022-12-27T23:10:00.168Z,3.25
2022-12-27T23:12:31.721Z,2.30
2022-12-27T23:15:03.094Z,2.58
2022-12-27T23:17:34.707Z,2.50
2022-12-27T23:20:07.832Z,2.20
2022-12-27T23:22:39.354Z,2.67
2022-12-27T23:25:11.064Z,2.60
2022-12-27T23:27:42.538Z,3.52
2022-12-27T23:30:16.194Z,2.92
2022-12-27T23:32:47.665Z,2.87
2022-12-27T23:35:19.154Z,2.47
2022-12-27T23:37:51.421Z,3.10
2022-12-27T23:40:22.771Z,2.30
2022-12-27T23:42:54.306Z,3.67
2022-12-27T23:45:26.187Z,3.95
2022-12-27T23:47:57.981Z,2.92
2022-12-27T23:50:29.329Z,3.15
2022-12-27T23:53:00.994Z,3.33
2022-12-27T23:55:32.547Z,2.50
2022-12-27T23:58:04.000Z,3.15
